createdAt,value
2019-01-16T16:20:04.649Z,7.83
2019-01-16T16:22:40.317Z,10.53
2019-01-16T16:25:27.422Z,8.20
2019-01-16T16:28:11.133Z,6.40
2019-01-16T16:30:54.509Z,4.90
2019-01-16T16:33:48.033Z,5.10
2019-01-16T16:36:31.174Z,8.48
2019-01-16T16:39:16.836Z,8.30
2019-01-16T16:42:10.529Z,9.50
2019-01-16T16:44:57.673Z,8.73
2019-01-16T16:47:48.657Z,5.22
2019-01-16T16:50:37.013Z,3.92
2019-01-16T16:53:27.937Z,4.70
2019-01-16T16:56:14.918Z,5.67
2019-01-16T16:59:05.681Z,5.78
2019-01-16T17:01:51.386Z,6.47
2019-01-16T17:04:31.674Z,4.87
2019-01-16T17:07:22.971Z,4.30
2019-01-16T17:10:13.986Z,4.30
2019-01-16T17:13:04.724Z,4.53
2019-01-16T17:15:56.697Z,6.92
2019-01-16T17:18:54.181Z,8.00
2019-01-16T17:21:54.037Z,6.70
2019-01-16T17:24:47.866Z,5.50
2019-01-16T17:27:33.016Z,6.00
2019-01-16T17:30:34.080Z,6.60
2019-01-16T17:33:26.019Z,6.28
2019-01-16T17:36:13.913Z,8.80
2019-01-16T17:39:03.274Z,8.90
2019-01-16T17:41:38.748Z,10.60
2019-01-16T17:44:39.185Z,8.48
2019-01-16T17:47:21.576Z,6.65
2019-01-16T17:50:08.341Z,6.25
2019-01-16T17:52:59.310Z,7.37
2019-01-16T17:55:56.689Z,5.80
2019-01-16T17:58:53.669Z,5.30
2019-01-16T18:01:40.662Z,5.67
2019-01-16T18:04:38.400Z,5.25
2019-01-16T18:07:17.875Z,5.95
2019-01-16T18:10:04.512Z,5.35
2019-01-16T18:12:51.454Z,4.25
2019-01-16T18:15:42.457Z,3.20
2019-01-16T18:18:29.780Z,4.15
2019-01-16T18:21:36.113Z,3.60
2019-01-16T18:24:22.778Z,4.00
2019-01-16T18:27:13.646Z,3.70
2019-01-16T18:29:50.962Z,4.22
2019-01-16T18:32:38.438Z,6.12
2019-01-16T18:35:32.449Z,4.90
2019-01-16T18:38:19.760Z,4.00
2019-01-16T18:41:01.374Z,5.70
2019-01-16T18:43:48.282Z,5.95
2019-01-16T18:46:42.385Z,6.80
2019-01-16T18:49:45.865Z,7.33
2019-01-16T18:52:42.033Z,6.12
2019-01-16T18:55:39.521Z,4.85
2019-01-16T18:58:16.609Z,4.80
2019-01-16T19:01:03.393Z,4.40
2019-01-16T19:03:52.508Z,4.40
2019-01-16T19:06:49.766Z,5.00
2019-01-16T19:09:37.949Z,4.70
2019-01-16T19:12:19.386Z,4.05
2019-01-16T19:15:22.437Z,5.00
2019-01-16T19:18:09.595Z,4.73
2019-01-16T19:20:56.145Z,4.30
2019-01-16T19:23:42.989Z,4.50
2019-01-16T19:26:31.009Z,3.70
2019-01-16T19:29:11.301Z,3.70
2019-01-16T19:31:58.390Z,3.90
2019-01-16T19:34:46.349Z,3.83
2019-01-16T19:37:32.350Z,3.30
2019-01-16T19:40:17.537Z,3.92
2019-01-16T19:43:04.153Z,3.90
2019-01-16T19:45:55.837Z,3.83
2019-01-16T19:48:38.560Z,3.92
2019-01-16T19:51:25.422Z,3.40
2019-01-16T19:54:16.174Z,3.95
2019-01-16T19:56:58.076Z,4.47
2019-01-16T19:59:58.609Z,6.33
2019-01-16T20:02:45.397Z,5.10
2019-01-16T20:05:32.589Z,6.45
2019-01-16T20:08:19.467Z,4.40
2019-01-16T20:11:22.878Z,4.83
2019-01-16T20:14:10.853Z,4.40
2019-01-16T20:16:57.836Z,4.90
2019-01-16T20:19:53.921Z,6.37
2019-01-16T20:22:45.548Z,5.12
2019-01-16T20:25:26.303Z,4.85
2019-01-16T20:28:14.345Z,4.10
2019-01-16T20:31:01.673Z,4.70
2019-01-16T20:33:48.321Z,5.20
2019-01-16T20:36:36.525Z,6.30
2019-01-16T20:39:25.880Z,3.55
2019-01-16T20:42:06.453Z,4.40
2019-01-16T20:44:53.877Z,3.45
2019-01-16T20:47:51.025Z,3.70
2019-01-16T20:50:37.597Z,3.40
2019-01-16T20:53:28.621Z,3.25
2019-01-16T20:56:22.573Z,3.00
2019-01-16T20:59:09.642Z,3.37
2019-01-16T21:01:57.669Z,2.80
2019-01-16T21:04:42.957Z,2.97
2019-01-16T21:07:29.024Z,3.30
2019-01-16T21:10:17.823Z,4.20
2019-01-16T21:13:18.050Z,4.40
2019-01-16T21:16:00.045Z,3.50
2019-01-16T21:18:46.025Z,3.70
2019-01-16T21:21:34.345Z,3.00
2019-01-16T21:24:20.981Z,4.00
2019-01-16T21:27:06.958Z,4.40
2019-01-16T21:29:50.491Z,4.30
2019-01-16T21:32:37.284Z,3.55
2019-01-16T21:35:28.729Z,5.40
2019-01-16T21:38:10.104Z,6.65
2019-01-16T21:40:57.112Z,6.87
2019-01-16T21:43:43.770Z,7.70
2019-01-16T21:46:34.704Z,7.40
2019-01-16T21:49:31.161Z,6.95
2019-01-16T21:52:09.678Z,6.10
2019-01-16T21:55:03.047Z,4.30
2019-01-16T21:57:59.885Z,3.67
2019-01-16T22:00:42.387Z,3.60
2019-01-16T22:03:18.250Z,3.58
2019-01-16T22:06:00.342Z,3.27
2019-01-16T22:08:48.599Z,4.17
2019-01-16T22:11:49.128Z,3.70
2019-01-16T22:14:29.893Z,3.60
2019-01-16T22:17:17.117Z,3.10
2019-01-16T22:19:56.546Z,3.40
2019-01-16T22:22:43.438Z,3.50
2019-01-16T22:25:37.975Z,3.75
2019-01-16T22:28:26.622Z,3.65
2019-01-16T22:31:08.572Z,3.27
2019-01-16T22:34:06.893Z,3.40
2019-01-16T22:36:47.696Z,3.40
2019-01-16T22:39:48.176Z,3.00
2019-01-16T22:42:35.516Z,3.33
2019-01-16T22:45:14.343Z,2.90
2019-01-16T22:48:12.436Z,3.33
2019-01-16T22:51:06.784Z,3.33
2019-01-16T22:54:00.065Z,3.20
2019-01-16T22:56:47.353Z,2.90
2019-01-16T22:59:38.528Z,3.00
2019-01-16T23:02:42.550Z,2.80
2019-01-16T23:05:30.968Z,3.15
2019-01-16T23:08:23.964Z,3.00
2019-01-16T23:11:22.517Z,5.60
2019-01-16T23:14:11.358Z,4.45
2019-01-16T23:17:00.200Z,3.47
2019-01-16T23:19:41.060Z,3.85
2019-01-16T23:22:27.204Z,9.38
2019-01-16T23:25:27.987Z,4.80
2019-01-16T23:28:15.327Z,3.67
2019-01-16T23:31:01.583Z,3.92
2019-01-16T23:33:50.129Z,3.70
2019-01-16T23:36:38.668Z,3.10
2019-01-16T23:39:26.312Z,3.17
2019-01-16T23:42:13.534Z,3.05
2019-01-16T23:45:00.579Z,3.22
2019-01-16T23:47:48.937Z,3.40
2019-01-16T23:50:36.463Z,2.92
2019-01-16T23:53:37.122Z,2.83
2019-01-16T23:56:28.428Z,2.90
2019-01-16T23:59:17.266Z,2.80
